Time;durP1;ratioP1;P1;durP2;ratioP2;P2;SDS_P1;SDS_P2;PMS_P1;PMS_P2;Temp;Humidity;BMP_temperature;BMP_pressure;BME280_temperature;BME280_humidity;BME280_pressure;Samples;Min_cycle;Max_cycle;Signal;HPM_P1;HPM_P2
2022/06/17 00:02:05;;;;;;;5.50;3.13;;;;;;;-148.88;67.71;76102.22;4994055;28;20474;-73
2022/06/17 00:04:30;;;;;;;4.32;3.40;;;;;;;-148.88;68.17;76110.34;4994028;28;20026;-73
2022/06/17 00:07:05;;;;;;;5.07;3.38;;;;;;;-148.88;68.66;76110.34;4994110;28;20361;-72
2022/06/17 00:09:34;;;;;;;5.78;2.92;;;;;;;-148.88;68.43;76118.47;4994039;28;20030;-72
2022/06/17 00:11:59;;;;;;;6.78;3.80;;;;;;;-148.88;68.68;76118.47;4994518;28;20403;-72
2022/06/17 00:14:32;;;;;;;8.23;4.05;;;;;;;-148.88;68.60;76122.56;4994074;28;20480;-73
2022/06/17 00:16:58;;;;;;;;;;;;;;;-148.88;69.26;76142.88;5009299;28;20030;-73
2022/06/17 00:19:24;;;;;;;5.75;3.53;;;;;;;-148.88;69.55;76148.97;4993712;28;19941;-73
2022/06/17 00:21:52;;;;;;;4.47;3.55;;;;;;;-148.88;69.74;76153.03;4994124;28;20109;-72
2022/06/17 00:24:22;;;;;;;6.40;3.75;;;;;;;-148.88;70.08;76163.19;5008585;28;20084;-72
2022/06/17 00:26:48;;;;;;;6.40;3.47;;;;;;;-148.88;70.23;76163.19;4993548;28;20065;-73
2022/06/17 00:29:17;;;;;;;8.85;4.38;;;;;;;-148.88;70.91;76165.22;4993699;28;20022;-73
2022/06/17 00:31:42;;;;;;;8.18;5.00;;;;;;;-148.88;71.30;76169.28;4993549;28;20357;-73
2022/06/17 00:34:08;;;;;;;6.05;4.85;;;;;;;-148.88;71.29;76171.31;4993261;28;20038;-73
2022/06/17 00:36:34;;;;;;;9.18;4.47;;;;;;;-148.88;72.29;76179.44;4993242;28;20026;-73
2022/06/17 00:39:00;;;;;;;7.22;4.95;;;;;;;-148.88;72.73;76183.50;4993337;28;20038;-72
2022/06/17 00:41:32;;;;;;;7.13;4.18;;;;;;;-148.88;73.09;76187.56;4993341;28;20029;-72
2022/06/17 00:44:07;;;;;;;6.40;4.53;;;;;;;-148.88;73.00;76195.69;4993359;28;20030;-72
2022/06/17 00:46:44;;;;;;;8.20;4.30;;;;;;;-148.88;73.31;76197.72;4993684;28;20057;-72
2022/06/17 00:49:19;;;;;;;7.40;4.78;;;;;;;-148.88;73.59;76203.81;4992938;28;20034;-72
2022/06/17 00:52:01;;;;;;;7.70;4.85;;;;;;;-148.88;73.59;76197.72;4993613;28;20026;-73
2022/06/17 00:54:40;;;;;;;7.50;4.32;;;;;;;-148.88;73.74;76203.81;4993634;28;20022;-73
2022/06/17 00:57:28;;;;;;;8.75;4.10;;;;;;;-148.88;74.36;76207.88;5010841;28;20472;-73
2022/06/17 01:00:08;;;;;;;8.07;5.28;;;;;;;-148.88;74.09;76207.88;4997388;28;20110;-73
2022/06/17 01:02:42;;;;;;;7.95;5.00;;;;;;;-148.88;74.01;76216.00;4997484;28;20053;-73
2022/06/17 01:05:08;;;;;;;9.00;4.65;;;;;;;-148.88;74.43;76213.97;4997082;28;20113;-73
2022/06/17 01:07:39;;;;;;;7.40;5.00;;;;;;;-148.88;74.94;76218.03;4996971;28;20026;-73
2022/06/17 01:10:13;;;;;;;9.68;5.07;;;;;;;-148.88;75.12;76216.00;4997100;28;20400;-73
2022/06/17 01:12:38;;;;;;;;;;;;;;;-148.88;75.11;76220.06;4997871;28;20034;-73
2022/06/17 01:15:06;;;;;;;8.75;4.65;;;;;;;-148.88;74.54;76218.03;4996973;28;19932;-73
2022/06/17 01:17:32;;;;;;;7.05;4.40;;;;;;;-148.88;74.41;76222.09;4995514;28;20058;-73
2022/06/17 01:20:00;;;;;;;9.20;4.15;;;;;;;-148.88;74.44;76226.16;4997084;28;20100;-73
2022/06/17 01:22:26;;;;;;;6.63;4.28;;;;;;;-148.88;74.14;76224.13;4997361;28;20022;-73
2022/06/17 01:24:57;;;;;;;8.50;4.63;;;;;;;-148.88;74.56;76232.25;4997164;28;20019;-72
2022/06/17 01:27:25;;;;;;;7.95;4.78;;;;;;;-148.88;74.60;76236.31;4997149;28;20367;-72
2022/06/17 01:29:50;;;;;;;7.20;4.32;;;;;;;-148.88;75.15;76248.50;4997055;28;20373;-72
2022/06/17 01:32:19;;;;;;;8.60;4.70;;;;;;;-148.88;76.20;76248.50;4997073;28;20502;-74
2022/06/17 01:34:45;;;;;;;6.95;4.57;;;;;;;-148.88;75.72;76256.63;4996724;28;20030;-73
2022/06/17 01:37:11;;;;;;;7.07;3.88;;;;;;;-148.88;75.18;76256.63;4996884;28;20026;-73
2022/06/17 01:39:37;;;;;;;7.10;4.03;;;;;;;-148.88;75.24;76268.81;4996610;28;20023;-73
2022/06/17 01:42:03;;;;;;;7.13;4.20;;;;;;;-148.88;76.96;76285.06;4996786;28;20025;-72
2022/06/17 01:44:35;;;;;;;7.30;4.35;;;;;;;-148.88;77.50;76291.16;4996481;28;20036;-73
2022/06/17 01:47:05;;;;;;;5.70;4.47;;;;;;;-148.88;78.24;76301.31;5011884;28;20026;-73
2022/06/17 01:49:38;;;;;;;9.82;4.50;;;;;;;-148.88;78.32;76301.31;4996265;28;20639;-73
2022/06/17 01:52:06;;;;;;;6.85;4.55;;;;;;;-148.88;77.39;76299.28;4996563;28;20033;-72
2022/06/17 01:54:36;;;;;;;7.03;5.05;;;;;;;-148.88;77.58;76295.22;4996250;28;20439;-72
2022/06/17 01:57:05;;;;;;;8.57;5.32;;;;;;;-148.88;78.52;76297.25;4996241;28;20018;-72
2022/06/17 01:59:41;;;;;;;7.63;5.50;;;;;;;-148.88;79.57;76297.25;4996157;28;20046;-72
2022/06/17 02:02:09;;;;;;;7.38;5.18;;;;;;;-148.88;80.36;76305.38;4996466;28;20105;-72
2022/06/17 02:04:39;;;;;;;9.38;5.43;;;;;;;-148.88;81.87;76313.50;4995037;28;20022;-72
2022/06/17 02:07:20;;;;;;;7.40;5.10;;;;;;;-148.88;82.04;76325.69;4995656;28;20101;-72
2022/06/17 02:09:47;;;;;;;6.78;5.03;;;;;;;-148.88;81.75;76323.66;4995819;28;20476;-73
2022/06/17 02:12:14;;;;;;;7.25;5.43;;;;;;;-148.88;81.45;76325.69;4995925;28;20026;-73
2022/06/17 02:14:41;;;;;;;6.85;5.22;;;;;;;-148.88;81.44;76337.88;4995905;28;20030;-73
2022/06/17 02:17:07;;;;;;;7.53;5.40;;;;;;;-148.88;82.23;76337.88;4995784;28;20027;-74
2022/06/17 02:19:35;;;;;;;7.50;5.72;;;;;;;-148.88;82.16;76341.94;4995710;28;20031;-73
2022/06/17 02:22:25;;;;;;;7.80;5.55;;;;;;;-148.88;82.34;76337.88;4995666;28;20458;-73
2022/06/17 02:24:55;;;;;;;7.93;4.93;;;;;;;-148.88;82.58;76337.88;4995403;28;20500;-73
2022/06/17 02:27:22;;;;;;;7.00;4.90;;;;;;;-148.88;82.16;76346.00;4995672;28;20047;-73
2022/06/17 02:29:49;;;;;;;7.57;4.85;;;;;;;-148.88;82.31;76343.97;5010684;28;20029;-73
2022/06/17 02:32:16;;;;;;;7.15;5.00;;;;;;;-148.88;81.83;76356.16;4995640;28;20030;-73
2022/06/17 02:35:03;;;;;;;7.57;5.50;;;;;;;-148.88;82.67;76366.31;4995668;28;20030;-73
2022/06/17 02:37:30;;;;;;;6.80;4.65;;;;;;;-148.88;82.43;76370.38;4995689;28;20026;-73
2022/06/17 02:39:58;;;;;;;7.07;5.22;;;;;;;-148.88;82.64;76368.34;4995956;28;20026;-73
2022/06/17 02:42:27;;;;;;;8.48;5.50;;;;;;;-148.88;83.19;76376.47;4996132;28;20034;-73
2022/06/17 02:45:17;;;;;;;7.82;5.07;;;;;;;-148.88;82.96;76390.69;4996325;28;20484;-73
2022/06/17 02:47:44;;;;;;;10.95;5.55;;;;;;;-148.88;83.82;76394.75;5010359;28;20050;-72
2022/06/17 02:50:24;;;;;;;6.68;5.22;;;;;;;-148.88;83.97;76402.88;4995457;28;20395;-73
2022/06/17 02:52:51;;;;;;;8.45;5.40;;;;;;;-148.88;84.14;76400.84;4996789;28;20034;-73
2022/06/17 02:55:33;;;;;;;7.90;5.22;;;;;;;-148.88;83.82;76398.81;4995757;28;20062;-73
2022/06/17 02:58:37;;;;;;;5.78;4.85;;;;;;;-148.88;83.57;76400.84;4995932;28;20026;-73
2022/06/17 03:01:07;;;;;;;6.05;4.82;;;;;;;-148.88;83.23;76402.88;4973158;28;20030;-73
2022/06/17 03:03:34;;;;;;;8.65;5.07;;;;;;;-148.88;83.35;76406.94;4995394;28;20067;-73
2022/06/17 03:06:00;;;;;;;8.57;4.93;;;;;;;-148.88;83.92;76413.03;4995493;28;20081;-73
2022/06/17 03:08:29;;;;;;;6.63;5.32;;;;;;;-148.88;84.18;76419.16;4995615;28;20030;-73
2022/06/17 03:11:00;;;;;;;8.90;5.28;;;;;;;-148.88;83.92;76415.06;4994374;28;20026;-73
2022/06/17 03:13:35;;;;;;;6.50;5.45;;;;;;;-148.88;84.27;76419.16;4995745;28;20026;-73
2022/06/17 03:16:04;;;;;;;10.45;6.15;;;;;;;-148.88;83.98;76419.16;4995512;28;20153;-73
2022/06/17 03:18:30;;;;;;;8.25;6.00;;;;;;;-148.88;84.85;76417.09;4994070;28;20045;-73
2022/06/17 03:20:56;;;;;;;9.00;6.82;;;;;;;-148.88;85.51;76415.06;4995797;28;20022;-73
2022/06/17 03:23:29;;;;;;;9.57;6.03;;;;;;;-148.88;86.15;76411.00;4995205;28;20053;-73
2022/06/17 03:26:00;;;;;;;10.00;6.80;;;;;;;-148.88;86.10;76415.06;4995152;28;20019;-73
2022/06/17 03:28:30;;;;;;;14.30;7.30;;;;;;;-148.88;86.85;76408.97;4995308;28;20030;-74
2022/06/17 03:31:03;;;;;;;8.90;6.63;;;;;;;-148.88;86.82;76411.00;4995172;28;20073;-73
2022/06/17 03:33:34;;;;;;;8.00;6.40;;;;;;;-148.88;86.50;76417.09;5032300;23;20042;-84
2022/06/17 03:36:06;;;;;;;10.57;6.82;;;;;;;-148.88;87.03;76427.28;5018510;28;20026;-82
2022/06/17 03:38:35;;;;;;;8.00;6.38;;;;;;;-148.88;87.26;76417.09;5001227;28;20026;-83
2022/06/17 03:41:09;;;;;;;8.55;6.60;;;;;;;-148.88;87.99;76419.16;5001611;28;20030;-83
2022/06/17 03:43:44;;;;;;;7.55;5.82;;;;;;;-148.88;87.64;76419.16;5010103;28;20121;-83
2022/06/17 03:46:10;;;;;;;8.95;5.85;;;;;;;-148.88;87.48;76425.25;5040582;28;20021;-85
2022/06/17 03:48:50;;;;;;;8.05;5.32;;;;;;;-148.88;87.54;76423.19;5042376;28;20033;-83
2022/06/17 03:51:19;;;;;;;8.77;5.50;;;;;;;-148.88;87.38;76419.16;5027090;28;20399;-84
2022/06/17 03:53:46;;;;;;;8.95;5.60;;;;;;;-148.88;87.50;76423.19;5044589;28;20098;-85
2022/06/17 03:56:17;;;;;;;8.20;5.50;;;;;;;-148.88;87.84;76427.28;5044223;28;20085;-85
2022/06/17 03:58:43;;;;;;;7.10;5.10;;;;;;;-148.88;87.41;76423.19;5044482;28;20029;-84
2022/06/17 04:01:22;;;;;;;7.68;5.72;;;;;;;-148.88;87.46;76431.34;5040671;28;20117;-86
2022/06/17 04:03:57;;;;;;;10.43;5.53;;;;;;;-148.88;87.50;76431.34;5038155;28;20060;-85
2022/06/17 04:06:29;;;;;;;8.38;5.15;;;;;;;-148.88;87.75;76435.41;5039032;28;20041;-84
2022/06/17 04:08:57;;;;;;;6.65;5.00;;;;;;;-148.88;87.87;76435.41;5037658;28;20022;-85
2022/06/17 04:11:26;;;;;;;7.00;5.60;;;;;;;-148.88;88.11;76439.47;5019074;28;20041;-83
2022/06/17 04:13:55;;;;;;;8.02;5.18;;;;;;;-148.88;87.82;76443.53;5039045;28;20026;-84
2022/06/17 04:16:25;;;;;;;10.23;6.32;;;;;;;-148.88;87.99;76435.41;5038707;28;20033;-83
2022/06/17 04:18:50;;;;;;;9.25;5.55;;;;;;;-148.88;88.04;76431.34;5038471;28;20032;-85
2022/06/17 04:21:16;;;;;;;8.60;5.47;;;;;;;-148.88;87.75;76427.28;5021511;28;20021;-85
2022/06/17 04:23:44;;;;;;;8.80;5.68;;;;;;;-148.88;88.50;76419.16;5031346;23;20045;-76
2022/06/17 04:26:22;;;;;;;9.82;5.55;;;;;;;-148.88;88.51;76419.16;5032077;28;20025;-76
2022/06/17 04:28:52;;;;;;;7.75;5.63;;;;;;;-148.88;88.41;76415.06;5042922;28;20025;-76
2022/06/17 04:31:23;;;;;;;9.00;6.00;;;;;;;-148.88;89.02;76411.00;5053470;28;20028;-76
2022/06/17 04:34:16;;;;;;;9.63;6.30;;;;;;;-148.88;88.86;76402.88;5053342;28;20025;-76
2022/06/17 04:36:47;;;;;;;9.63;5.90;;;;;;;-148.88;88.91;76394.75;5065269;28;20033;-77
2022/06/17 04:39:37;;;;;;;7.55;5.82;;;;;;;-148.88;88.57;76390.69;5053452;28;20041;-77
2022/06/17 04:42:06;;;;;;;8.48;5.97;;;;;;;-148.88;88.50;76388.66;5054160;28;20028;-76
2022/06/17 04:44:32;;;;;;;8.00;5.97;;;;;;;-148.88;89.43;76398.81;5054916;28;20029;-78
2022/06/17 04:47:09;;;;;;;8.88;6.38;;;;;;;-148.88;89.97;76390.69;5054443;28;20028;-78
2022/06/17 04:49:40;;;;;;;8.13;5.75;;;;;;;-148.88;89.98;76388.66;5052392;28;20436;-78
2022/06/17 04:52:34;;;;;;;10.52;6.00;;;;;;;-148.88;89.75;76392.72;5052646;28;20067;-75
2022/06/17 04:55:00;;;;;;;;;;;;;;;-148.88;89.38;76394.75;5052896;28;20123;-76
2022/06/17 04:57:28;;;;;;;8.07;5.70;;;;;;;-148.88;89.43;76386.63;5052307;28;19916;-77
2022/06/17 04:59:58;;;;;;;10.32;6.38;;;;;;;-148.88;89.82;76390.69;5052510;28;20044;-76
2022/06/17 05:02:27;;;;;;;9.07;5.68;;;;;;;-148.88;89.77;76386.63;5052681;28;20036;-76
2022/06/17 05:04:55;;;;;;;8.23;5.97;;;;;;;-148.88;89.75;76378.50;5052519;28;20055;-76
2022/06/17 05:07:20;;;;;;;7.80;6.13;;;;;;;-148.88;89.51;76372.41;5052606;28;20112;-76
2022/06/17 05:09:51;;;;;;;9.63;6.30;;;;;;;-148.88;90.29;76372.41;5052675;28;20096;-77
2022/06/17 05:12:26;;;;;;;8.55;6.47;;;;;;;-148.88;89.80;76366.31;5052398;28;20029;-76
2022/06/17 05:14:56;;;;;;;10.68;6.18;;;;;;;-148.88;89.95;76360.22;5052592;28;20024;-77
2022/06/17 05:17:22;;;;;;;8.45;6.10;;;;;;;-148.88;89.67;76362.25;5050948;28;20017;-76
2022/06/17 05:19:48;;;;;;;10.52;6.53;;;;;;;-148.88;89.24;76360.22;5050868;28;20121;-77
2022/06/17 05:22:36;;;;;;;8.15;6.15;;;;;;;-148.88;88.67;76350.06;5052230;28;20079;-77
2022/06/17 05:25:05;;;;;;;8.65;6.20;;;;;;;-148.88;88.85;76346.00;5052125;28;20393;-77
2022/06/17 05:27:30;;;;;;;13.25;6.45;;;;;;;-148.88;88.31;76350.06;5052603;28;20100;-77
2022/06/17 05:29:55;;;;;;;9.32;5.95;;;;;;;-148.88;88.11;76341.94;5052436;28;20457;-76
2022/06/17 05:32:22;;;;;;;8.95;5.70;;;;;;;-148.88;88.21;76325.69;5050955;28;20032;-77
2022/06/17 05:34:48;;;;;;;9.50;6.25;;;;;;;-148.88;88.71;76305.38;5052619;28;20504;-77
2022/06/17 05:37:14;;;;;;;8.98;5.95;;;;;;;-148.88;89.27;76287.09;5050913;28;20057;-77
2022/06/17 05:39:40;;;;;;;8.70;6.05;;;;;;;-148.88;89.06;76270.84;5067356;28;20035;-77
2022/06/17 05:42:05;;;;;;;7.63;6.15;;;;;;;-148.88;89.04;76262.72;5052909;28;20016;-77
2022/06/17 05:44:32;;;;;;;9.38;5.57;;;;;;;-148.88;88.71;76264.75;5055960;28;20025;-77
2022/06/17 05:46:58;;;;;;;8.75;5.60;;;;;;;-148.88;88.41;76248.50;5056251;28;20021;-76
2022/06/17 05:49:24;;;;;;;10.98;5.82;;;;;;;-148.88;88.37;76240.38;5055859;28;20124;-76
2022/06/17 05:51:49;;;;;;;10.93;5.97;;;;;;;-148.88;88.75;76232.25;5055810;28;20027;-76
2022/06/17 05:54:15;;;;;;;13.88;6.63;;;;;;;-148.88;88.71;76213.97;5056396;28;20029;-76
2022/06/17 05:56:40;;;;;;;9.10;5.80;;;;;;;-148.88;88.35;76207.88;5055474;28;20028;-76
2022/06/17 05:59:05;;;;;;;9.82;5.57;;;;;;;-148.88;87.99;76199.75;5054097;28;20482;-76
2022/06/17 06:02:27;;;;;;;7.75;5.50;;;;;;;-148.88;86.99;76187.56;5054101;28;20075;-74
2022/06/17 06:04:52;;;;;;;5.82;4.80;;;;;;;-148.88;85.80;76171.31;5054030;28;20023;-76
2022/06/17 06:07:17;;;;;;;9.80;5.20;;;;;;;-148.88;85.49;76163.19;5055326;28;20017;-75
2022/06/17 06:09:42;;;;;;;9.55;5.07;;;;;;;-148.88;84.85;76159.13;5071013;28;20379;-75
2022/06/17 06:12:08;;;;;;;10.50;5.00;;;;;;;-148.88;84.20;76155.06;5055177;28;20511;-75
2022/06/17 06:14:34;;;;;;;7.40;4.88;;;;;;;-148.88;84.07;76136.78;5055128;28;20029;-75
2022/06/17 06:16:59;;;;;;;7.82;4.20;;;;;;;-148.88;83.40;76134.72;5053692;28;20021;-76
2022/06/17 06:19:24;;;;;;;7.90;4.53;;;;;;;-148.88;80.92;76126.59;5055041;28;20052;-76
2022/06/17 06:21:50;;;;;;;7.82;4.63;;;;;;;-148.88;81.21;76110.34;5055685;28;20376;-75
2022/06/17 06:24:15;;;;;;;5.97;4.30;;;;;;;-148.88;82.06;76104.25;5053708;28;20375;-75
2022/06/17 06:26:40;;;;;;;8.13;4.10;;;;;;;-148.88;82.32;76090.03;5055031;28;20363;-75
2022/06/17 06:29:06;;;;;;;9.50;4.53;;;;;;;-148.88;81.20;76079.88;5054921;28;20069;-75
2022/06/17 06:31:35;;;;;;;6.97;4.90;;;;;;;-148.88;80.44;76049.41;5054980;28;20028;-76
2022/06/17 06:34:00;;;;;;;8.65;4.15;;;;;;;-148.88;80.50;76037.22;5054884;28;20032;-76
2022/06/17 06:36:26;;;;;;;6.40;4.82;;;;;;;-148.88;78.84;75984.41;5054737;28;20024;-75
2022/06/17 06:38:51;;;;;;;8.68;4.13;;;;;;;-148.88;78.47;75976.28;5054757;28;20104;-75
2022/06/17 06:41:21;;;;;;;8.15;4.03;;;;;;;-148.88;77.48;75947.84;5053455;28;20396;-75
2022/06/17 06:43:47;;;;;;;7.90;3.78;;;;;;;-148.88;74.19;75913.31;5054931;28;20386;-76
2022/06/17 06:46:16;;;;;;;7.45;3.80;;;;;;;-148.88;75.03;75905.19;5054623;28;20056;-75
2022/06/17 06:48:42;;;;;;;6.80;3.92;;;;;;;-148.88;73.94;75899.09;5054347;28;20108;-76
2022/06/17 06:51:07;;;;;;;6.90;4.25;;;;;;;-148.88;75.04;75895.03;5053078;28;20028;-75
2022/06/17 06:53:33;;;;;;;5.57;3.50;;;;;;;-148.88;74.80;75886.91;5053798;28;20025;-76
2022/06/17 06:55:58;;;;;;;5.43;3.50;;;;;;;-148.88;73.34;75884.88;5054365;28;20013;-75
2022/06/17 06:58:25;;;;;;;8.10;3.58;;;;;;;-148.88;72.84;75874.72;5054385;28;20036;-74
2022/06/17 07:00:56;;;;;;;7.57;3.33;;;;;;;-148.88;72.88;75864.56;5054185;28;20032;-75
2022/06/17 07:03:22;;;;;;;6.05;3.38;;;;;;;-148.88;72.09;75850.34;5054535;28;20025;-75
2022/06/17 07:05:50;;;;;;;5.30;3.30;;;;;;;-148.88;69.80;75801.59;5054915;28;20071;-75
2022/06/17 07:08:20;;;;;;;6.63;3.55;;;;;;;-148.88;69.01;75789.41;5054062;28;20025;-75
2022/06/17 07:10:48;;;;;;;6.53;3.42;;;;;;;-148.88;69.21;75756.91;5054323;28;20055;-75
2022/06/17 07:13:13;;;;;;;4.97;3.17;;;;;;;-148.88;70.49;75732.53;5054054;28;20036;-75
2022/06/17 07:15:44;;;;;;;7.22;2.95;;;;;;;-148.88;67.48;75702.06;5052707;28;20029;-75
2022/06/17 07:18:13;;;;;;;5.80;2.70;;;;;;;-148.88;66.52;75671.59;5053376;28;20029;-75
2022/06/17 07:20:44;;;;;;;5.78;2.50;;;;;;;-148.88;61.17;75651.28;5054382;28;20044;-75
2022/06/17 07:23:13;;;;;;;7.07;2.42;;;;;;;-148.88;58.18;75624.88;5053877;28;20516;-75
2022/06/17 07:25:39;;;;;;;2.70;1.95;;;;;;;-148.88;58.91;75618.78;5053936;28;20060;-75
2022/06/17 07:28:06;;;;;;;4.95;2.13;;;;;;;-148.88;58.54;75608.63;5053924;28;20486;-75
2022/06/17 07:30:33;;;;;;;4.53;2.08;;;;;;;-148.88;56.25;75596.44;5053901;28;20024;-75
2022/06/17 07:32:59;;;;;;;6.28;2.33;;;;;;;-148.88;55.56;75570.03;5069233;28;20079;-75
2022/06/17 07:35:24;;;;;;;4.68;2.08;;;;;;;-148.88;57.10;75553.81;5054034;28;20025;-75
2022/06/17 07:40:34;;;;;;;;;;;;;;;-148.88;54.53;75523.34;5054385;28;20513;-75
2022/06/17 07:43:00;;;;;;;5.40;2.47;;;;;;;-148.88;55.31;75509.13;5052158;28;19909;-75
2022/06/17 07:45:27;;;;;;;4.50;2.13;;;;;;;-148.88;53.46;75494.91;5053585;28;20025;-75
2022/06/17 07:47:53;;;;;;;4.60;2.13;;;;;;;-148.88;54.17;75484.75;5052072;28;20021;-75
2022/06/17 07:50:31;;;;;;;5.63;2.20;;;;;;;-148.88;51.73;75456.31;5051932;28;20057;-75
2022/06/17 07:52:57;;;;;;;4.43;2.40;;;;;;;-148.88;49.98;75436.00;5053281;28;20493;-75
2022/06/17 07:55:23;;;;;;;4.38;2.40;;;;;;;-148.88;49.56;75450.22;5053260;28;20155;-75
2022/06/17 07:57:49;;;;;;;3.90;2.17;;;;;;;-148.88;49.44;75472.56;5053031;28;20024;-75
2022/06/17 08:00:48;;;;;;;6.32;2.30;;;;;;;-148.88;50.51;75460.38;5068569;28;20055;-75
2022/06/17 08:03:15;;;;;;;4.70;2.22;;;;;;;-148.88;49.27;75425.84;5051424;28;20405;-75
2022/06/17 08:05:43;;;;;;;5.55;2.35;;;;;;;-148.88;49.01;75421.78;5052198;28;20027;-75
2022/06/17 08:08:10;;;;;;;8.65;2.25;;;;;;;-148.88;51.04;75405.53;5068235;28;20040;-75
2022/06/17 08:10:37;;;;;;;4.00;2.10;;;;;;;-148.88;50.45;75409.59;5052956;28;20021;-75
2022/06/17 08:13:05;;;;;;;6.95;2.15;;;;;;;-148.88;50.61;75413.66;5052829;28;20063;-75
2022/06/17 08:15:31;;;;;;;4.53;2.25;;;;;;;-148.88;50.28;75397.41;5052769;28;20437;-75
2022/06/17 08:17:56;;;;;;;5.10;2.67;;;;;;;-148.88;49.95;75381.16;5053216;28;20052;-75
2022/06/17 08:20:23;;;;;;;3.88;2.40;;;;;;;-148.88;50.05;75360.84;5052761;28;20025;-75
2022/06/17 08:22:49;;;;;;;4.20;2.15;;;;;;;-148.88;49.04;75334.44;5052999;28;20089;-75
2022/06/17 08:25:14;;;;;;;6.05;2.50;;;;;;;-148.88;48.68;75330.38;5052641;28;20112;-75
2022/06/17 08:27:50;;;;;;;4.93;2.03;;;;;;;-148.88;46.82;75334.44;5052615;28;20428;-75
2022/06/17 08:30:18;;;;;;;4.18;2.15;;;;;;;-148.88;48.14;75314.13;5052857;28;20029;-75
2022/06/17 08:32:46;;;;;;;4.05;2.20;;;;;;;-148.88;48.32;75285.69;5053066;28;20122;-75
2022/06/17 08:35:13;;;;;;;4.05;2.13;;;;;;;-148.88;46.30;75310.06;5052706;28;20082;-75
2022/06/17 08:37:38;;;;;;;5.18;2.40;;;;;;;-148.88;46.83;75312.09;5052442;28;20024;-75
2022/06/17 08:40:20;;;;;;;4.13;2.50;;;;;;;-148.88;47.06;75289.75;5052994;28;20109;-75
2022/06/17 08:43:15;;;;;;;4.07;2.28;;;;;;;-148.88;48.17;75310.06;5052564;28;20474;-75
2022/06/17 08:45:46;;;;;;;6.35;2.75;;;;;;;-148.88;48.86;75293.81;5052085;28;20044;-75
2022/06/17 08:48:35;;;;;;;4.72;2.28;;;;;;;-148.88;48.84;75293.81;5052681;28;20090;-75
2022/06/17 08:51:09;;;;;;;5.25;2.63;;;;;;;-148.88;47.96;75277.59;5052958;28;20488;-75
2022/06/17 08:54:06;;;;;;;5.65;2.28;;;;;;;-148.88;48.17;75269.47;5053041;28;20025;-75
2022/06/17 08:57:05;;;;;;;4.63;2.20;;;;;;;-148.88;48.70;75251.19;5053044;28;20449;-75
2022/06/17 08:59:45;;;;;;;5.10;2.55;;;;;;;-148.88;48.62;75224.78;5052808;28;20096;-75
2022/06/17 09:02:22;;;;;;;2.97;2.05;;;;;;;-148.88;47.99;75202.44;5053039;28;20127;-75
2022/06/17 09:05:00;;;;;;;3.85;2.13;;;;;;;-148.88;46.61;75194.31;5052900;28;20393;-75
2022/06/17 09:07:37;;;;;;;4.55;2.45;;;;;;;-148.88;46.76;75208.53;5053182;28;20063;-75
2022/06/17 09:10:32;;;;;;;5.45;2.50;;;;;;;-148.88;46.46;75171.97;5053084;28;20108;-75
2022/06/17 09:13:08;;;;;;;4.47;2.47;;;;;;;-148.88;45.84;75178.06;5052965;28;20043;-75
2022/06/17 09:15:40;;;;;;;4.28;2.35;;;;;;;-148.88;48.02;75167.91;5051503;28;20057;-75
2022/06/17 09:18:19;;;;;;;4.60;2.40;;;;;;;-148.88;46.78;75192.28;5054007;28;20565;-75
2022/06/17 09:20:47;;;;;;;5.13;2.55;;;;;;;-148.88;46.89;75186.19;5055557;28;20083;-75
2022/06/17 09:23:18;;;;;;;4.70;2.25;;;;;;;-148.88;46.33;75192.28;5057071;28;20063;-75
2022/06/17 09:25:45;;;;;;;5.72;2.83;;;;;;;-148.88;46.24;75210.56;5056690;28;20035;-75
2022/06/17 09:28:18;;;;;;;4.22;2.90;;;;;;;-148.88;47.02;75204.47;5056573;28;20025;-75
2022/06/17 09:30:56;;;;;;;7.30;2.70;;;;;;;-148.88;47.10;75157.75;5055449;28;20086;-75
2022/06/17 09:34:00;;;;;;;5.30;2.65;;;;;;;-148.88;46.83;75131.34;5071989;23;20533;-87
2022/06/17 09:36:33;;;;;;;12.27;2.85;;;;;;;-148.88;45.76;75145.56;4980512;28;20053;-87
2022/06/17 09:39:10;;;;;;;5.88;2.60;;;;;;;-148.88;47.09;75109.00;4980701;28;20033;-87
2022/06/17 09:41:52;;;;;;;6.80;3.35;;;;;;;-148.88;44.07;75078.56;4980744;28;20488;-87
2022/06/17 09:44:48;;;;;;;6.28;3.05;;;;;;;-148.88;43.08;75115.09;4989782;28;20045;-87
2022/06/17 09:47:49;;;;;;;4.68;2.80;;;;;;;-148.88;45.04;75074.50;5009665;28;20072;-85
2022/06/17 09:50:41;;;;;;;6.35;2.80;;;;;;;-148.88;44.76;74972.94;4957069;28;20033;-88
2022/06/17 09:53:30;;;;;;;4.18;2.28;;;;;;;-148.88;42.31;74948.56;5016100;28;20030;-87
2022/06/17 09:56:01;;;;;;;5.43;2.63;;;;;;;-148.88;42.68;74952.63;5016607;28;20032;-88
2022/06/17 09:58:53;;;;;;;4.57;2.20;;;;;;;-148.88;43.08;74940.47;4999137;28;20026;-88
2022/06/17 10:01:19;;;;;;;4.55;2.50;;;;;;;-148.88;41.82;74958.72;4999622;28;20041;-87
2022/06/17 10:03:56;;;;;;;6.28;2.65;;;;;;;-148.88;40.66;74952.63;4999419;28;20141;-88
2022/06/17 10:06:26;;;;;;;4.40;2.55;;;;;;;-148.88;41.98;74964.81;5016205;28;20121;-88
2022/06/17 10:09:17;;;;;;;5.32;2.25;;;;;;;-148.88;40.61;74985.13;4999758;28;20095;-87
2022/06/17 10:12:14;;;;;;;4.45;2.20;;;;;;;-148.88;42.46;74966.84;4998594;28;20392;-88
2022/06/17 10:14:52;;;;;;;2.75;2.10;;;;;;;-148.88;42.18;74928.28;5015611;28;20044;-88
2022/06/17 10:20:33;;;;;;;4.28;2.30;;;;;;;-148.88;39.31;74851.09;5016714;28;20087;-87
2022/06/17 10:23:22;;;;;;;5.22;2.30;;;;;;;-148.88;38.68;74847.03;5016641;28;20030;-88
2022/06/17 10:26:39;;;;;;;2.88;1.83;;;;;;;-148.88;41.13;74818.59;4999042;28;20066;-88
2022/06/17 10:29:26;;;;;;;3.92;2.00;;;;;;;-148.88;40.05;74778.00;5001015;28;20050;-87
2022/06/17 10:31:59;;;;;;;6.95;2.88;;;;;;;-148.88;39.04;74834.84;4998650;28;20026;-88
2022/06/17 10:34:54;;;;;;;6.60;2.65;;;;;;;-148.88;39.64;74749.56;4998121;28;20021;-87
2022/06/17 10:37:27;;;;;;;4.57;2.33;;;;;;;-148.88;39.76;74733.31;5007399;28;20038;-87
2022/06/17 10:40:10;;;;;;;3.33;1.90;;;;;;;-148.88;37.99;74737.38;4998201;28;20416;-87
2022/06/17 10:42:59;;;;;;;6.22;2.35;;;;;;;-148.88;38.51;74710.97;4998744;28;20030;-87
2022/06/17 10:45:31;;;;;;;5.65;2.20;;;;;;;-148.88;37.65;74733.31;5016246;28;20026;-88
2022/06/17 10:48:03;;;;;;;3.70;2.38;;;;;;;-148.88;38.14;74830.78;5015299;28;20040;-87
2022/06/17 10:50:34;;;;;;;4.38;2.28;;;;;;;-148.88;39.48;74743.47;4999104;28;20080;-88
2022/06/17 10:53:34;;;;;;;3.80;2.10;;;;;;;-148.88;39.33;74690.69;4998790;28;20052;-87
2022/06/17 10:56:05;;;;;;;2.88;1.95;;;;;;;-148.88;38.40;74702.84;4998909;28;20030;-88
2022/06/17 10:58:53;;;;;;;5.20;2.22;;;;;;;-148.88;39.54;74643.97;5015683;28;20057;-88
2022/06/17 11:01:19;;;;;;;3.55;1.95;;;;;;;-148.88;35.76;74623.66;4999065;28;20030;-88
2022/06/17 11:03:50;;;;;;;3.67;1.80;;;;;;;-148.88;36.28;74706.91;5014242;28;20022;-87
2022/06/17 11:06:18;;;;;;;5.72;2.10;;;;;;;-148.88;38.35;74727.22;5014405;28;20049;-87
2022/06/17 11:08:49;;;;;;;3.67;1.90;;;;;;;-148.88;38.12;74765.81;5015539;28;20476;-88
2022/06/17 11:14:27;;;;;;;4.90;2.05;;;;;;;-148.88;38.93;74808.47;5015525;28;20107;-86
2022/06/17 11:16:52;;;;;;;4.20;2.13;;;;;;;-148.88;41.02;74824.69;5015468;28;20108;-86
2022/06/17 11:19:21;;;;;;;5.10;2.05;;;;;;;-148.88;39.31;74810.50;4997777;28;20116;-86
2022/06/17 11:21:51;;;;;;;5.40;1.98;;;;;;;-148.88;39.82;74773.94;5015374;28;20527;-87
2022/06/17 11:24:41;;;;;;;6.22;1.90;;;;;;;-148.88;38.76;74786.13;5015770;28;20030;-86
2022/06/17 11:27:31;;;;;;;4.80;2.20;;;;;;;-148.88;40.51;74784.09;4998582;28;20033;-87
2022/06/17 11:30:25;;;;;;;3.22;1.90;;;;;;;-148.88;39.51;74767.84;5014083;28;20120;-87
2022/06/17 11:32:52;;;;;;;8.15;2.10;;;;;;;-148.88;39.40;74773.94;5015055;28;20511;-86
2022/06/17 11:35:29;;;;;;;4.63;1.80;;;;;;;-148.88;38.04;74796.28;5015850;28;20040;-87
2022/06/17 11:38:08;;;;;;;2.65;1.48;;;;;;;-148.88;38.75;74782.06;4997335;28;20097;-87
2022/06/17 11:40:49;;;;;;;2.22;1.60;;;;;;;-148.88;37.82;74761.75;5014573;28;20034;-86
2022/06/17 11:43:44;;;;;;;2.60;1.50;;;;;;;-148.88;38.74;74729.25;4997604;28;20064;-87
2022/06/17 11:46:13;;;;;;;4.85;1.85;;;;;;;-148.88;38.04;74696.78;5014524;28;20053;-87
2022/06/17 11:48:45;;;;;;;3.85;1.73;;;;;;;-148.88;38.19;74725.19;5016156;28;20061;-86
2022/06/17 11:51:16;;;;;;;3.72;1.80;;;;;;;-148.88;37.46;74688.66;4997699;28;20030;-88